createdAt,value
2022-08-22T00:01:28.534Z,88.89
2022-08-22T00:02:44.824Z,75.09
2022-08-22T00:03:04.819Z,79.85
2022-08-22T00:03:12.286Z,82.46
2022-08-22T00:04:04.340Z,88.48
2022-08-22T00:06:48.245Z,87.92
2022-08-22T00:09:47.122Z,87.74
2022-08-22T00:12:29.054Z,87.89
2022-08-22T00:15:42.997Z,87.72
2022-08-22T00:18:39.189Z,87.70
2022-08-22T00:21:13.459Z,88.00
2022-08-22T00:23:46.820Z,87.75
2022-08-22T00:26:32.611Z,87.54
2022-08-22T00:29:08.318Z,87.58
2022-08-22T00:31:40.765Z,87.76
2022-08-22T00:34:17.107Z,87.86
2022-08-22T00:36:52.575Z,87.62
2022-08-22T00:39:27.559Z,87.82
2022-08-22T00:42:31.232Z,87.51
2022-08-22T00:45:36.483Z,87.79
2022-08-22T00:48:26.603Z,87.82
2022-08-22T00:51:32.372Z,88.02
2022-08-22T00:54:31.597Z,88.02
2022-08-22T00:57:20.016Z,87.69
2022-08-22T00:59:58.753Z,87.75
2022-08-22T01:02:44.175Z,88.20
2022-08-22T01:05:16.977Z,88.47
2022-08-22T01:08:13.854Z,88.73
2022-08-22T01:11:10.111Z,88.88
2022-08-22T01:13:51.668Z,88.82
2022-08-22T01:16:35.266Z,88.60
2022-08-22T01:19:23.325Z,88.54
2022-08-22T01:22:09.399Z,88.62
2022-08-22T01:25:21.449Z,89.23
2022-08-22T01:28:43.661Z,90.27
2022-08-22T01:31:29.038Z,91.13
2022-08-22T01:34:12.783Z,91.56
2022-08-22T01:37:01.166Z,91.61
2022-08-22T01:39:33.789Z,90.95
2022-08-22T01:42:03.502Z,90.39
2022-08-22T01:44:45.364Z,90.08
2022-08-22T01:47:42.018Z,90.44
2022-08-22T01:50:24.931Z,90.39
2022-08-22T01:52:58.731Z,90.96
2022-08-22T01:55:54.255Z,91.19
2022-08-22T01:58:26.544Z,91.19
2022-08-22T02:00:59.252Z,91.14
2022-08-22T02:03:38.361Z,91.15
2022-08-22T02:06:14.467Z,91.28
2022-08-22T02:08:59.940Z,91.19
2022-08-22T02:11:56.078Z,91.24
2022-08-22T02:14:32.219Z,91.05
2022-08-22T02:17:25.324Z,91.09
2022-08-22T02:19:55.104Z,91.91
2022-08-22T02:23:00.348Z,91.89
2022-08-22T02:25:32.453Z,92.17
2022-08-22T02:28:16.486Z,92.07
2022-08-22T02:30:54.907Z,93.01
2022-08-22T02:33:29.611Z,92.92
2022-08-22T02:36:18.233Z,92.67
2022-08-22T02:38:52.338Z,92.47
2022-08-22T02:41:46.789Z,92.40
2022-08-22T02:44:27.154Z,92.45
2022-08-22T02:47:06.076Z,92.75
2022-08-22T02:49:53.703Z,92.79
2022-08-22T02:52:53.493Z,92.65
2022-08-22T02:55:29.624Z,92.69
2022-08-22T02:58:08.505Z,93.46
2022-08-22T03:00:52.068Z,94.57
2022-08-22T03:03:28.614Z,95.16
2022-08-22T03:06:34.024Z,94.78
2022-08-22T03:09:16.375Z,94.09
2022-08-22T03:11:51.656Z,94.01
2022-08-22T03:14:27.064Z,93.87
2022-08-22T03:17:00.564Z,94.02
2022-08-22T03:19:47.332Z,94.42
2022-08-22T03:22:30.684Z,94.49
2022-08-22T03:25:13.757Z,94.10
2022-08-22T03:27:49.541Z,93.70
2022-08-22T03:30:28.136Z,93.57
2022-08-22T03:33:14.905Z,93.80
2022-08-22T03:35:41.611Z,93.78
2022-08-22T03:38:20.686Z,93.46
2022-08-22T03:41:09.441Z,93.24
2022-08-22T03:44:16.738Z,93.36
2022-08-22T03:46:46.306Z,93.55
2022-08-22T03:49:31.492Z,93.61
2022-08-22T03:53:06.489Z,93.30
2022-08-22T03:55:44.790Z,93.10
2022-08-22T03:58:33.797Z,93.35
2022-08-22T04:01:22.057Z,93.08
2022-08-22T04:04:31.318Z,92.82
2022-08-22T04:07:19.672Z,93.08
2022-08-22T04:10:19.738Z,93.13
2022-08-22T04:13:39.726Z,93.83
2022-08-22T04:16:06.392Z,93.47
2022-08-22T04:18:35.729Z,93.08
2022-08-22T04:21:42.488Z,93.16
2022-08-22T04:24:42.935Z,93.06
2022-08-22T04:27:25.247Z,93.54
2022-08-22T04:29:58.106Z,93.75
2022-08-22T04:32:36.884Z,93.39
2022-08-22T04:35:34.386Z,93.11
2022-08-22T04:38:23.676Z,92.58
2022-08-22T04:41:01.406Z,92.34
2022-08-22T04:43:37.103Z,92.08
2022-08-22T04:46:38.390Z,92.01
2022-08-22T04:49:07.844Z,92.01
2022-08-22T04:51:46.091Z,92.03
2022-08-22T04:54:36.997Z,92.67
2022-08-22T04:57:31.078Z,92.73
2022-08-22T05:00:05.875Z,92.99
2022-08-22T05:02:37.077Z,93.46
2022-08-22T05:05:13.218Z,93.23
2022-08-22T05:07:46.730Z,92.99
2022-08-22T05:10:33.009Z,93.50
2022-08-22T05:13:36.111Z,93.20
2022-08-22T05:16:10.223Z,93.06
2022-08-22T05:18:46.910Z,93.55
2022-08-22T05:21:17.760Z,93.17
2022-08-22T05:24:07.807Z,93.11
2022-08-22T05:26:42.677Z,92.96
2022-08-22T05:29:11.633Z,92.64
2022-08-22T05:31:51.143Z,92.35
2022-08-22T05:34:28.011Z,92.47
2022-08-22T05:37:20.117Z,92.39
2022-08-22T05:39:53.506Z,92.08
2022-08-22T05:42:33.273Z,91.79
2022-08-22T05:45:02.659Z,91.36
2022-08-22T05:47:32.367Z,90.65
2022-08-22T05:50:07.291Z,89.56
2022-08-22T05:52:49.434Z,88.75
2022-08-22T05:55:22.080Z,87.99
2022-08-22T05:58:02.743Z,87.62
2022-08-22T06:00:37.255Z,87.66
2022-08-22T06:03:25.670Z,86.54
2022-08-22T06:05:55.828Z,86.95
2022-08-22T06:08:33.921Z,85.59
2022-08-22T06:11:18.849Z,83.63
2022-08-22T06:14:02.977Z,82.37
2022-08-22T06:16:49.141Z,81.68
2022-08-22T06:19:20.464Z,82.02
2022-08-22T06:21:53.205Z,81.55
2022-08-22T06:24:26.808Z,80.23
2022-08-22T06:26:59.054Z,80.24
2022-08-22T06:29:35.197Z,80.20
2022-08-22T06:32:44.282Z,80.12
2022-08-22T06:35:21.119Z,78.61
2022-08-22T06:37:49.845Z,78.49
2022-08-22T06:40:18.173Z,78.27
2022-08-22T06:42:50.437Z,77.88
2022-08-22T06:45:22.055Z,77.97
2022-08-22T06:48:00.224Z,77.50
2022-08-22T06:50:34.483Z,77.12
2022-08-22T06:53:01.082Z,76.55
2022-08-22T06:55:29.871Z,76.65
2022-08-22T06:58:03.364Z,76.83
2022-08-22T07:00:33.979Z,76.51
2022-08-22T07:03:24.000Z,77.07
2022-08-22T07:05:54.538Z,77.27
2022-08-22T07:08:24.187Z,76.36
2022-08-22T07:11:21.347Z,75.43
2022-08-22T07:14:15.575Z,75.90
2022-08-22T07:17:04.418Z,75.74
2022-08-22T07:19:36.323Z,75.21
2022-08-22T07:22:13.683Z,74.01
2022-08-22T07:24:47.243Z,73.84
2022-08-22T07:27:30.243Z,73.57
2022-08-22T07:30:10.824Z,72.98
2022-08-22T07:32:57.875Z,72.88
2022-08-22T07:35:53.126Z,71.10
2022-08-22T07:38:30.117Z,70.56
2022-08-22T07:41:05.129Z,69.48
2022-08-22T07:43:39.915Z,69.62
2022-08-22T07:46:16.133Z,69.27
2022-08-22T07:49:26.568Z,68.37
2022-08-22T07:52:05.400Z,67.74
2022-08-22T07:54:36.310Z,67.85
2022-08-22T07:57:08.894Z,67.54
2022-08-22T07:59:38.619Z,67.01
2022-08-22T08:02:11.219Z,66.96
2022-08-22T08:04:40.816Z,66.92
2022-08-22T08:07:10.941Z,66.43
2022-08-22T08:09:50.642Z,65.76
2022-08-22T08:12:21.347Z,65.43
2022-08-22T08:14:52.905Z,65.22
2022-08-22T08:17:28.791Z,63.71
2022-08-22T08:20:03.329Z,62.05
2022-08-22T08:22:31.268Z,61.12
2022-08-22T08:25:00.156Z,59.90
2022-08-22T08:27:50.507Z,59.09
2022-08-22T08:30:41.075Z,58.58
2022-08-22T08:33:25.656Z,56.80
2022-08-22T08:36:06.630Z,57.08
2022-08-22T08:38:48.966Z,56.56
2022-08-22T08:41:46.205Z,55.48
2022-08-22T08:44:18.782Z,56.10
2022-08-22T08:46:55.425Z,56.16
2022-08-22T08:49:43.083Z,55.83
2022-08-22T08:52:28.732Z,55.42
2022-08-22T08:55:52.507Z,54.66
2022-08-22T08:58:33.199Z,54.31
2022-08-22T09:01:33.965Z,54.66
2022-08-22T09:04:07.043Z,54.75
2022-08-22T09:07:13.652Z,55.30
2022-08-22T09:10:05.178Z,55.18
2022-08-22T09:13:12.280Z,55.49
2022-08-22T09:15:39.527Z,55.45
2022-08-22T09:18:27.364Z,55.25
2022-08-22T09:21:12.730Z,54.75
2022-08-22T09:23:54.452Z,54.14
2022-08-22T09:26:49.457Z,54.24
2022-08-22T09:29:51.411Z,54.11
2022-08-22T09:32:36.712Z,52.58
2022-08-22T09:35:12.602Z,52.11
2022-08-22T09:37:53.038Z,52.11
2022-08-22T09:40:29.354Z,52.68
2022-08-22T09:43:24.365Z,52.91
2022-08-22T09:46:14.963Z,53.38
2022-08-22T09:48:44.181Z,53.82
2022-08-22T09:51:34.001Z,52.88
2022-08-22T09:54:00.741Z,52.92
2022-08-22T09:56:48.945Z,52.08
2022-08-22T09:59:50.684Z,51.21
2022-08-22T10:02:59.576Z,51.37
2022-08-22T10:05:40.808Z,51.35
2022-08-22T10:08:48.702Z,51.30
2022-08-22T10:11:23.989Z,50.05
2022-08-22T10:14:00.850Z,49.05
2022-08-22T10:16:38.860Z,47.06
2022-08-22T10:19:20.157Z,46.30
2022-08-22T10:22:08.728Z,46.73
2022-08-22T10:24:44.332Z,46.61
2022-08-22T10:27:19.834Z,46.35
2022-08-22T10:30:01.001Z,46.81
2022-08-22T10:32:36.730Z,47.24
2022-08-22T10:35:28.430Z,47.72
2022-08-22T10:38:13.757Z,46.88
2022-08-22T10:40:50.597Z,46.80
2022-08-22T10:43:56.438Z,46.90
2022-08-22T10:47:00.783Z,47.25
2022-08-22T10:49:38.640Z,47.34
2022-08-22T10:52:44.028Z,45.72
2022-08-22T10:55:27.012Z,44.64
2022-08-22T10:58:10.562Z,44.25
2022-08-22T11:00:51.097Z,43.41
2022-08-22T11:03:41.154Z,42.35
2022-08-22T11:06:39.842Z,42.50
2022-08-22T11:09:15.539Z,41.23
2022-08-22T11:11:47.999Z,40.41
2022-08-22T11:14:24.089Z,39.97
2022-08-22T11:17:00.719Z,39.82
2022-08-22T11:19:48.270Z,39.77
2022-08-22T11:22:31.217Z,39.48
2022-08-22T11:25:15.755Z,39.55
2022-08-22T11:28:22.912Z,39.31
2022-08-22T11:31:15.734Z,37.86
2022-08-22T11:33:55.662Z,38.39
2022-08-22T11:36:51.217Z,37.82
2022-08-22T11:39:40.059Z,36.73
2022-08-22T11:42:15.632Z,36.32
2022-08-22T11:44:50.834Z,37.03
2022-08-22T11:47:26.550Z,36.13
2022-08-22T11:50:00.885Z,36.06
2022-08-22T11:53:04.769Z,35.08
2022-08-22T11:56:05.571Z,34.55
2022-08-22T11:58:51.764Z,35.04
2022-08-22T12:01:23.129Z,34.94
2022-08-22T12:03:58.422Z,34.92
2022-08-22T12:06:34.709Z,35.17
2022-08-22T12:09:20.259Z,34.90
2022-08-22T12:12:25.626Z,34.69
2022-08-22T12:15:15.522Z,34.34
2022-08-22T12:18:10.039Z,33.97
2022-08-22T12:20:39.567Z,33.97
2022-08-22T12:23:48.530Z,34.19
2022-08-22T12:26:41.519Z,35.19
2022-08-22T12:29:45.240Z,35.20
2022-08-22T12:32:45.695Z,34.69
2022-08-22T12:35:30.647Z,34.02
2022-08-22T12:38:26.636Z,33.97
2022-08-22T12:41:28.020Z,33.64
2022-08-22T12:44:25.832Z,32.92
2022-08-22T12:47:22.311Z,32.45
2022-08-22T12:50:38.993Z,32.18
2022-08-22T12:53:22.212Z,31.47
2022-08-22T12:55:55.808Z,31.92
2022-08-22T12:58:51.156Z,31.45
2022-08-22T13:01:18.907Z,31.20
2022-08-22T13:03:56.221Z,31.24
2022-08-22T13:06:35.093Z,30.89
2022-08-22T13:09:09.840Z,31.11
2022-08-22T13:11:40.104Z,31.54
2022-08-22T13:14:09.615Z,32.16
2022-08-22T13:16:51.021Z,32.18
2022-08-22T13:19:25.398Z,32.91
2022-08-22T13:22:09.267Z,33.00
2022-08-22T13:24:40.186Z,32.74
2022-08-22T13:27:50.961Z,33.01
2022-08-22T13:30:22.951Z,33.09
2022-08-22T13:32:53.045Z,33.09
2022-08-22T13:35:39.896Z,32.63
2022-08-22T13:38:21.030Z,31.59
2022-08-22T13:40:56.154Z,31.81
2022-08-22T13:43:57.057Z,31.81
2022-08-22T13:46:29.841Z,31.42
2022-08-22T13:49:01.134Z,31.67
2022-08-22T13:51:44.470Z,31.42
2022-08-22T13:54:16.142Z,30.58
2022-08-22T13:56:51.963Z,30.99
2022-08-22T13:59:50.173Z,31.15
2022-08-22T14:02:58.358Z,31.27
2022-08-22T14:05:41.413Z,31.21
2022-08-22T14:08:31.534Z,31.15
2022-08-22T14:11:17.071Z,31.26
2022-08-22T14:13:43.776Z,31.29
2022-08-22T14:16:29.886Z,31.63
2022-08-22T14:19:06.216Z,31.83
2022-08-22T14:21:40.168Z,31.89
2022-08-22T14:24:25.734Z,31.95
2022-08-22T14:26:59.364Z,33.21
2022-08-22T14:29:50.101Z,34.67
2022-08-22T14:32:22.632Z,34.89
2022-08-22T14:34:59.626Z,35.09
2022-08-22T14:37:35.742Z,34.95
2022-08-22T14:40:29.932Z,35.26
2022-08-22T14:43:08.899Z,35.43
2022-08-22T14:45:43.317Z,35.77
2022-08-22T14:48:29.602Z,35.94
2022-08-22T14:51:04.085Z,36.02
2022-08-22T14:53:34.352Z,35.96
2022-08-22T14:56:06.383Z,36.02
2022-08-22T14:59:02.293Z,36.60
2022-08-22T15:01:32.738Z,36.66
2022-08-22T15:04:16.628Z,37.08
2022-08-22T15:06:55.316Z,37.41
2022-08-22T15:09:27.930Z,38.03
2022-08-22T15:11:54.622Z,38.17
2022-08-22T15:14:35.247Z,38.78
2022-08-22T15:17:06.703Z,39.51
2022-08-22T15:19:35.496Z,39.46
2022-08-22T15:22:11.337Z,39.69
2022-08-22T15:24:50.975Z,39.52
2022-08-22T15:27:24.715Z,40.31
2022-08-22T15:29:55.256Z,40.68
2022-08-22T15:32:26.725Z,40.29
2022-08-22T15:35:22.394Z,39.26
2022-08-22T15:38:01.694Z,39.39
2022-08-22T15:40:31.466Z,39.65
2022-08-22T15:43:10.602Z,40.40
2022-08-22T15:45:39.021Z,42.28
2022-08-22T15:48:25.131Z,43.61
2022-08-22T15:51:01.643Z,44.18
2022-08-22T15:54:16.366Z,44.55
2022-08-22T15:56:51.815Z,44.57
2022-08-22T15:59:31.272Z,44.49
2022-08-22T16:02:41.778Z,43.63
2022-08-22T16:05:08.338Z,43.20
2022-08-22T16:07:47.226Z,43.19
2022-08-22T16:10:20.827Z,43.50
2022-08-22T16:13:16.099Z,43.84
2022-08-22T16:15:54.095Z,44.13
2022-08-22T16:18:45.835Z,44.55
2022-08-22T16:21:16.730Z,44.80
2022-08-22T16:23:49.852Z,45.07
2022-08-22T16:26:39.094Z,45.12
2022-08-22T16:29:17.843Z,45.36
2022-08-22T16:31:47.914Z,45.74
2022-08-22T16:34:17.505Z,45.95
2022-08-22T16:37:02.831Z,46.07
2022-08-22T16:39:32.436Z,46.27
2022-08-22T16:42:21.902Z,46.20
2022-08-22T16:45:06.756Z,46.32
2022-08-22T16:47:33.548Z,46.09
2022-08-22T16:50:05.963Z,45.79
2022-08-22T16:52:53.981Z,46.61
2022-08-22T16:55:29.749Z,47.43
2022-08-22T16:58:07.010Z,47.73
2022-08-22T17:00:39.561Z,47.12
2022-08-22T17:03:13.835Z,46.56
2022-08-22T17:06:14.135Z,46.23
2022-08-22T17:08:53.332Z,45.95
2022-08-22T17:11:29.230Z,45.76
2022-08-22T17:14:21.554Z,45.80
2022-08-22T17:17:07.781Z,45.96
2022-08-22T17:19:39.526Z,46.24
2022-08-22T17:22:31.328Z,48.80
2022-08-22T17:25:31.812Z,51.13
2022-08-22T17:28:33.928Z,52.42
2022-08-22T17:31:24.550Z,54.46
2022-08-22T17:34:09.445Z,56.06
2022-08-22T17:36:45.411Z,58.33
2022-08-22T17:39:41.681Z,59.93
2022-08-22T17:42:35.871Z,61.48
2022-08-22T17:45:28.184Z,63.93
2022-08-22T17:48:26.120Z,66.07
2022-08-22T17:50:57.884Z,67.84
2022-08-22T17:53:49.454Z,68.25
2022-08-22T17:56:38.820Z,68.95
2022-08-22T17:59:12.902Z,69.17
2022-08-22T18:02:08.497Z,69.72
2022-08-22T18:04:52.382Z,69.99
2022-08-22T18:07:25.426Z,70.11
2022-08-22T18:10:04.268Z,69.35
2022-08-22T18:12:40.197Z,69.83
2022-08-22T18:15:54.291Z,70.59
2022-08-22T18:18:37.675Z,69.73
2022-08-22T18:21:14.674Z,69.70
2022-08-22T18:23:47.647Z,70.58
2022-08-22T18:26:38.309Z,70.08
2022-08-22T18:29:16.984Z,70.07
2022-08-22T18:32:08.344Z,70.87
2022-08-22T18:34:45.687Z,73.29
2022-08-22T18:37:17.403Z,74.45
2022-08-22T18:39:58.290Z,74.99
2022-08-22T18:42:52.305Z,76.01
2022-08-22T18:45:47.667Z,75.47
2022-08-22T18:48:33.850Z,75.33
2022-08-22T18:51:29.261Z,75.74
2022-08-22T18:54:06.287Z,76.44
2022-08-22T18:56:47.845Z,77.70
2022-08-22T18:59:24.312Z,78.69
2022-08-22T19:02:04.032Z,79.44
2022-08-22T19:05:10.441Z,80.32
2022-08-22T19:08:02.250Z,79.92
2022-08-22T19:10:33.799Z,79.34
2022-08-22T19:13:38.236Z,78.28
2022-08-22T19:16:18.081Z,78.16
2022-08-22T19:19:03.102Z,78.14
2022-08-22T19:21:51.973Z,77.90
2022-08-22T19:24:28.442Z,77.76
2022-08-22T19:27:10.455Z,77.61
2022-08-22T19:29:37.354Z,77.72
2022-08-22T19:32:06.609Z,78.44
2022-08-22T19:34:46.775Z,78.63
2022-08-22T19:37:32.255Z,78.67
2022-08-22T19:40:11.147Z,78.82
2022-08-22T19:42:40.997Z,78.85
2022-08-22T19:45:19.649Z,78.90
2022-08-22T19:48:14.477Z,78.89
2022-08-22T19:50:42.697Z,78.71
2022-08-22T19:53:46.022Z,79.24
2022-08-22T19:56:24.976Z,78.73
2022-08-22T19:59:16.117Z,79.04
2022-08-22T20:02:21.831Z,79.17
2022-08-22T20:05:07.230Z,78.58
2022-08-22T20:07:55.513Z,78.46
2022-08-22T20:10:49.927Z,78.27
2022-08-22T20:13:22.608Z,79.01
2022-08-22T20:16:17.289Z,78.53
2022-08-22T20:19:07.858Z,78.68
2022-08-22T20:21:59.892Z,79.36
2022-08-22T20:24:46.074Z,79.66
2022-08-22T20:27:21.346Z,79.77
2022-08-22T20:29:54.221Z,80.14
2022-08-22T20:32:23.756Z,80.17
2022-08-22T20:34:56.486Z,80.68
2022-08-22T20:37:40.279Z,81.85
2022-08-22T20:40:51.987Z,81.77
2022-08-22T20:43:13.500Z,81.58
2022-08-22T20:46:02.496Z,82.33
2022-08-22T20:48:39.225Z,82.06
2022-08-22T20:51:08.798Z,81.73
2022-08-22T20:53:36.062Z,81.95
2022-08-22T20:56:06.454Z,81.78
2022-08-22T20:58:39.557Z,81.71
2022-08-22T21:01:09.801Z,81.85
2022-08-22T21:03:40.333Z,81.98
2022-08-22T21:06:28.844Z,82.08
2022-08-22T21:09:30.003Z,82.60
2022-08-22T21:12:00.323Z,82.09
2022-08-22T21:14:32.738Z,82.24
2022-08-22T21:17:15.735Z,82.14
2022-08-22T21:19:42.372Z,82.05
2022-08-22T21:22:28.598Z,82.06
2022-08-22T21:24:57.716Z,81.99
2022-08-22T21:27:33.119Z,82.18
2022-08-22T21:30:03.654Z,82.36
2022-08-22T21:32:41.666Z,82.73
2022-08-22T21:35:20.545Z,83.45
2022-08-22T21:37:47.433Z,84.59
2022-08-22T21:40:35.781Z,84.66
2022-08-22T21:43:26.781Z,85.72
2022-08-22T21:45:53.484Z,85.77
2022-08-22T21:48:56.145Z,85.17
2022-08-22T21:51:31.582Z,85.53
2022-08-22T21:54:29.069Z,85.21
2022-08-22T21:57:08.182Z,86.37
2022-08-22T21:59:51.968Z,85.88
2022-08-22T22:02:39.898Z,86.15
2022-08-22T22:05:15.890Z,85.83
2022-08-22T22:07:45.646Z,85.48
2022-08-22T22:10:16.854Z,86.09
2022-08-22T22:12:46.239Z,86.05
2022-08-22T22:15:17.745Z,85.56
2022-08-22T22:17:44.495Z,85.73
2022-08-22T22:20:14.677Z,86.12
2022-08-22T22:22:46.585Z,85.86
2022-08-22T22:25:40.416Z,86.12
2022-08-22T22:28:05.979Z,86.22
2022-08-22T22:30:32.727Z,86.23
2022-08-22T22:32:59.418Z,87.10
2022-08-22T22:35:26.520Z,87.54
2022-08-22T22:37:56.048Z,87.36
2022-08-22T22:40:23.810Z,87.77
2022-08-22T22:42:50.911Z,87.27
2022-08-22T22:45:17.658Z,86.98
2022-08-22T22:47:44.333Z,86.88
2022-08-22T22:50:10.906Z,86.90
2022-08-22T22:52:40.652Z,86.79
2022-08-22T22:55:09.217Z,86.70
2022-08-22T22:57:46.795Z,86.57
2022-08-22T23:00:14.583Z,86.61
2022-08-22T23:02:41.572Z,86.37
2022-08-22T23:05:09.920Z,87.01
2022-08-22T23:07:38.167Z,87.64
2022-08-22T23:10:06.419Z,88.12
2022-08-22T23:12:35.978Z,88.03
2022-08-22T23:15:04.638Z,87.93
2022-08-22T23:17:31.972Z,88.64
2022-08-22T23:19:58.864Z,89.53
2022-08-22T23:22:25.784Z,89.34
2022-08-22T23:24:52.814Z,89.85
2022-08-22T23:27:19.425Z,89.26
2022-08-22T23:29:46.145Z,89.42
2022-08-22T23:32:13.326Z,88.96
2022-08-22T23:34:45.215Z,89.27
2022-08-22T23:37:20.617Z,90.24
2022-08-22T23:39:48.419Z,90.67
2022-08-22T23:42:17.649Z,91.04
2022-08-22T23:44:45.282Z,90.87
2022-08-22T23:47:14.226Z,90.51
2022-08-22T23:49:42.715Z,90.04
2022-08-22T23:52:11.701Z,89.88
2022-08-22T23:54:39.467Z,89.62
2022-08-22T23:57:12.247Z,89.63
2022-08-22T23:59:46.497Z,89.43
